Time;durP1;ratioP1;P1;durP2;ratioP2;P2;SDS_P1;SDS_P2;PMS_P1;PMS_P2;Temp;Humidity;BMP_temperature;BMP_pressure;BME280_temperature;BME280_humidity;BME280_pressure;Samples;Min_cycle;Max_cycle;Signal;HPM_P1;HPM_P2
2024/01/23 00:00:37;;;;;;;3.78;1.70;;;17.40;61.20;;;;;;5010980;28;20061;-86
2024/01/23 00:03:02;;;;;;;3.45;1.45;;;17.40;61.10;;;;;;5006369;28;20046;-85
2024/01/23 00:05:28;;;;;;;1.90;1.38;;;17.40;61.20;;;;;;5026001;28;20074;-86
2024/01/23 00:07:53;;;;;;;1.92;1.50;;;17.40;61.10;;;;;;5025199;28;20047;-85
2024/01/23 00:10:21;;;;;;;2.60;1.42;;;17.30;61.30;;;;;;5023091;28;20076;-86
2024/01/23 00:12:47;;;;;;;1.63;1.38;;;17.30;61.50;;;;;;5023219;28;20049;-85
2024/01/23 00:15:12;;;;;;;2.60;1.63;;;17.20;61.40;;;;;;5020837;28;20065;-86
2024/01/23 00:17:38;;;;;;;1.38;1.20;;;17.20;61.50;;;;;;5008927;28;20038;-86
2024/01/23 00:20:04;;;;;;;1.67;1.35;;;17.20;61.70;;;;;;5021925;28;20143;-86
2024/01/23 00:22:30;;;;;;;2.13;1.35;;;17.20;61.80;;;;;;5024878;28;20052;-86
2024/01/23 00:24:55;;;;;;;1.85;1.30;;;17.10;61.90;;;;;;5024212;28;20411;-85
2024/01/23 00:27:21;;;;;;;1.40;1.30;;;17.10;61.90;;;;;;5023120;28;20049;-85
2024/01/23 00:29:46;;;;;;;1.52;1.40;;;17.10;62.00;;;;;;5023301;28;20532;-86
2024/01/23 00:32:12;;;;;;;1.73;1.23;;;17.10;62.30;;;;;;5018975;28;20077;-85
2024/01/23 00:34:38;;;;;;;1.55;1.30;;;17.10;62.30;;;;;;5011277;28;20049;-85
2024/01/23 00:37:03;;;;;;;1.30;1.20;;;17.00;62.30;;;;;;5022882;28;20045;-86
2024/01/23 00:39:29;;;;;;;1.40;1.30;;;17.00;62.30;;;;;;5021848;28;20061;-86
2024/01/23 00:41:55;;;;;;;2.10;1.40;;;17.00;62.50;;;;;;5023628;28;20048;-83
2024/01/23 00:44:21;;;;;;;1.13;1.02;;;17.00;62.50;;;;;;5008524;28;20038;-84
2024/01/23 00:46:46;;;;;;;2.00;1.50;;;16.90;62.40;;;;;;5021484;28;20043;-84
2024/01/23 00:49:12;;;;;;;1.52;1.20;;;16.90;63.40;;;;;;5018770;28;20128;-84
2024/01/23 00:51:37;;;;;;;1.55;1.13;;;16.80;62.70;;;;;;5021373;28;20094;-84
2024/01/23 00:54:03;;;;;;;1.48;1.15;;;16.80;62.80;;;;;;5023689;28;20049;-86
2024/01/23 00:56:28;;;;;;;1.60;1.10;;;16.80;62.90;;;;;;5021927;28;20151;-87
2024/01/23 00:58:54;;;;;;;2.15;1.60;;;16.80;62.80;;;;;;5026018;28;20103;-86
2024/01/23 01:01:19;;;;;;;1.40;1.30;;;16.80;63.00;;;;;;5010755;28;20511;-86
2024/01/23 01:03:45;;;;;;;1.65;1.33;;;16.70;63.10;;;;;;5024538;28;20388;-86
2024/01/23 01:06:10;;;;;;;1.33;1.10;;;16.70;63.10;;;;;;5022747;28;20048;-86
2024/01/23 01:08:36;;;;;;;1.45;1.35;;;16.70;63.20;;;;;;4995378;28;20045;-86
2024/01/23 01:11:02;;;;;;;1.35;1.25;;;16.70;63.20;;;;;;4996642;28;20041;-86
2024/01/23 01:13:27;;;;;;;2.08;1.45;;;16.60;63.30;;;;;;5023694;28;20041;-85
2024/01/23 01:15:53;;;;;;;1.02;1.00;;;16.60;63.30;;;;;;5008516;28;20185;-85
2024/01/23 01:18:18;;;;;;;1.70;1.30;;;16.60;63.40;;;;;;5003303;28;20142;-86
2024/01/23 01:20:44;;;;;;;1.20;1.10;;;16.60;63.40;;;;;;5021829;28;27438;-86
2024/01/23 01:23:09;;;;;;;1.60;1.50;;;16.60;63.50;;;;;;5005585;28;20042;-87
2024/01/23 01:25:36;;;;;;;1.75;0.95;;;16.60;63.60;;;;;;5024851;28;20053;-85
2024/01/23 01:28:01;;;;;;;1.42;1.15;;;16.50;63.50;;;;;;5022711;28;20467;-86
2024/01/23 01:30:28;;;;;;;1.05;1.02;;;16.50;63.60;;;;;;5005695;28;20041;-86
2024/01/23 01:32:54;;;;;;;2.17;1.27;;;16.50;63.70;;;;;;5004311;28;20050;-86
2024/01/23 01:35:20;;;;;;;1.55;1.30;;;16.50;63.70;;;;;;5019346;28;20053;-86
2024/01/23 01:37:45;;;;;;;1.38;1.25;;;16.50;63.80;;;;;;5024478;28;20041;-86
2024/01/23 01:40:13;;;;;;;2.55;1.00;;;16.40;63.80;;;;;;4992571;28;20199;-87
2024/01/23 01:42:41;;;;;;;1.42;1.00;;;16.40;63.90;;;;;;4991829;28;20037;-85
2024/01/23 01:45:08;;;;;;;2.17;1.30;;;16.40;63.90;;;;;;5020462;28;20396;-86
2024/01/23 01:47:33;;;;;;;1.15;1.00;;;16.40;64.00;;;;;;5022099;28;20044;-87
2024/01/23 01:49:59;;;;;;;1.50;1.35;;;16.40;64.70;;;;;;5020765;28;20045;-88
2024/01/23 01:52:25;;;;;;;1.40;1.20;;;16.40;64.00;;;;;;5009949;28;20045;-86
2024/01/23 01:54:50;;;;;;;1.95;1.70;;;16.40;63.90;;;;;;4989914;28;20033;-85
2024/01/23 01:57:17;;;;;;;0.90;0.90;;;16.30;64.00;;;;;;5020960;28;20050;-86
2024/01/23 01:59:42;;;;;;;1.13;1.02;;;16.30;64.30;;;;;;5022165;28;20049;-86
2024/01/23 02:02:08;;;;;;;1.40;1.00;;;16.30;64.10;;;;;;5024192;28;20136;-85
2024/01/23 02:04:33;;;;;;;1.95;1.25;;;16.30;64.30;;;;;;5019951;28;20487;-85
2024/01/23 02:06:59;;;;;;;1.50;1.10;;;16.30;64.30;;;;;;5003159;28;20041;-85
2024/01/23 02:09:25;;;;;;;2.03;1.40;;;16.30;65.10;;;;;;5003890;28;20061;-86
2024/01/23 02:11:57;;;;;;;1.23;1.13;;;16.20;64.40;;;;;;4990365;28;20047;-86
2024/01/23 02:14:23;;;;;;;1.73;1.00;;;16.20;64.40;;;;;;5007491;28;20680;-87
2024/01/23 02:16:48;;;;;;;1.25;1.15;;;16.20;64.50;;;;;;5002215;28;20125;-85
2024/01/23 02:19:15;;;;;;;1.20;1.10;;;16.20;64.50;;;;;;5006618;28;20030;-87
2024/01/23 02:21:41;;;;;;;2.25;0.95;;;16.20;64.50;;;;;;5020602;28;20089;-85
2024/01/23 02:24:07;;;;;;;0.95;0.82;;;16.20;64.70;;;;;;5020751;28;20931;-85
2024/01/23 02:26:32;;;;;;;1.20;1.00;;;16.10;64.60;;;;;;5024767;28;20041;-87
2024/01/23 02:28:58;;;;;;;2.30;0.98;;;16.10;64.60;;;;;;5042473;28;20118;-87
2024/01/23 02:31:23;;;;;;;1.98;1.25;;;16.10;64.60;;;;;;5012341;28;20415;-85
2024/01/23 02:33:49;;;;;;;1.38;1.10;;;16.10;64.60;;;;;;5010649;28;20518;-85
2024/01/23 02:36:15;;;;;;;1.42;1.20;;;16.10;64.70;;;;;;5018708;28;22486;-85
2024/01/23 02:38:40;;;;;;;2.15;1.50;;;16.10;64.80;;;;;;5022888;28;20029;-86
2024/01/23 02:41:06;;;;;;;1.90;1.00;;;16.10;64.80;;;;;;5024753;28;20072;-86
2024/01/23 02:43:32;;;;;;;1.90;0.90;;;16.10;64.80;;;;;;5004375;28;20499;-86
2024/01/23 02:45:58;;;;;;;1.27;1.15;;;16.10;64.90;;;;;;5018832;28;20041;-87
2024/01/23 02:48:23;;;;;;;1.20;1.00;;;16.00;64.90;;;;;;5006007;28;20088;-86
2024/01/23 02:50:49;;;;;;;1.67;0.90;;;16.00;64.90;;;;;;4982572;28;20044;-85
2024/01/23 02:53:14;;;;;;;1.80;0.95;;;16.00;64.90;;;;;;5022572;28;20509;-85
2024/01/23 02:55:41;;;;;;;1.52;0.90;;;16.00;65.00;;;;;;5006842;28;20132;-84
2024/01/23 02:58:08;;;;;;;2.08;1.20;;;16.00;65.00;;;;;;5022899;28;20057;-85
2024/01/23 03:00:35;;;;;;;1.33;1.00;;;16.00;65.10;;;;;;5021135;28;20037;-86
2024/01/23 03:03:03;;;;;;;2.08;1.40;;;16.00;65.10;;;;;;5024355;28;20108;-85
2024/01/23 03:05:28;;;;;;;1.42;1.30;;;16.00;65.10;;;;;;5015877;28;20045;-85
2024/01/23 03:07:54;;;;;;;1.15;1.05;;;16.00;65.10;;;;;;5021490;28;20068;-85
2024/01/23 03:10:20;;;;;;;1.33;0.85;;;15.90;65.10;;;;;;5013092;28;20040;-86
2024/01/23 03:12:46;;;;;;;1.67;1.08;;;15.90;65.20;;;;;;5005686;28;20113;-84
2024/01/23 03:15:11;;;;;;;1.10;1.00;;;15.90;65.20;;;;;;5007670;28;20499;-83
2024/01/23 03:17:37;;;;;;;2.30;1.20;;;15.90;66.10;;;;;;5008818;28;20052;-82
2024/01/23 03:20:03;;;;;;;1.75;1.27;;;15.90;65.30;;;;;;5022617;28;20438;-82
2024/01/23 03:22:29;;;;;;;0.85;0.85;;;15.90;65.40;;;;;;4993820;28;20072;-82
2024/01/23 03:24:55;;;;;;;1.08;0.85;;;15.90;65.40;;;;;;4993314;28;20026;-82
2024/01/23 03:27:21;;;;;;;1.40;1.30;;;15.80;65.40;;;;;;5023823;28;20049;-82
2024/01/23 03:29:46;;;;;;;1.27;1.00;;;15.80;66.20;;;;;;5024684;28;20049;-82
2024/01/23 03:32:12;;;;;;;1.80;0.90;;;15.80;65.40;;;;;;5022517;28;20121;-82
2024/01/23 03:34:38;;;;;;;2.13;1.10;;;15.80;65.40;;;;;;5022405;28;20133;-82
2024/01/23 03:37:04;;;;;;;2.42;0.95;;;15.80;65.50;;;;;;4990314;28;20125;-81
2024/01/23 03:39:30;;;;;;;1.30;1.20;;;15.80;65.50;;;;;;5022962;28;20041;-83
2024/01/23 03:41:56;;;;;;;2.28;1.17;;;15.80;65.40;;;;;;5024145;28;20038;-84
2024/01/23 03:44:22;;;;;;;2.00;1.45;;;15.80;65.50;;;;;;5027883;28;20080;-84
2024/01/23 03:46:48;;;;;;;2.83;1.10;;;15.80;65.50;;;;;;5022604;28;20446;-85
2024/01/23 03:49:14;;;;;;;2.58;1.00;;;15.80;65.50;;;;;;5022276;28;20084;-86
2024/01/23 03:51:39;;;;;;;1.48;1.25;;;15.80;65.60;;;;;;5020229;28;20073;-85
2024/01/23 03:54:05;;;;;;;2.45;1.25;;;15.80;65.60;;;;;;5024989;28;20037;-85
2024/01/23 03:56:30;;;;;;;0.90;0.82;;;15.80;65.50;;;;;;5024134;28;20053;-89
2024/01/23 03:58:56;;;;;;;1.50;1.00;;;15.80;65.50;;;;;;5043077;28;20204;-89
2024/01/23 04:01:21;;;;;;;1.73;1.50;;;15.80;65.60;;;;;;5008595;28;20050;-88
2024/01/23 04:03:47;;;;;;;1.70;1.10;;;15.80;66.50;;;;;;5007583;28;20037;-88
2024/01/23 04:06:13;;;;;;;2.15;1.23;;;15.70;65.70;;;;;;5008862;28;20030;-86
2024/01/23 04:08:38;;;;;;;1.25;0.85;;;15.70;65.80;;;;;;5015574;28;20128;-85
2024/01/23 04:11:04;;;;;;;1.20;0.80;;;15.70;65.80;;;;;;5026787;28;20075;-85
2024/01/23 04:13:29;;;;;;;2.50;0.93;;;15.70;65.80;;;;;;4998441;28;20034;-85
2024/01/23 04:15:55;;;;;;;1.60;1.10;;;15.70;65.70;;;;;;5009785;28;20523;-85
2024/01/23 04:18:20;;;;;;;1.40;1.00;;;15.70;65.70;;;;;;5025450;28;20042;-86
2024/01/23 04:20:46;;;;;;;1.30;1.05;;;15.70;66.00;;;;;;5017091;28;20056;-86
2024/01/23 04:23:11;;;;;;;1.92;1.25;;;15.70;66.20;;;;;;5025332;28;20045;-86
2024/01/23 04:25:37;;;;;;;2.00;0.98;;;15.70;66.30;;;;;;5009932;28;20051;-86
2024/01/23 04:28:03;;;;;;;2.55;1.25;;;15.70;66.30;;;;;;4990723;28;20037;-86
2024/01/23 04:30:29;;;;;;;1.10;1.00;;;15.70;66.60;;;;;;5023342;28;20057;-86
2024/01/23 04:32:54;;;;;;;1.73;1.30;;;15.70;66.70;;;;;;5001691;28;20072;-86
2024/01/23 04:35:20;;;;;;;1.63;1.00;;;15.70;66.80;;;;;;4991218;28;20567;-86
2024/01/23 04:37:45;;;;;;;1.00;0.80;;;15.70;67.10;;;;;;5009045;28;20042;-86
2024/01/23 04:40:11;;;;;;;1.45;1.00;;;15.70;67.10;;;;;;4989186;28;20176;-86
2024/01/23 04:42:37;;;;;;;2.92;1.27;;;15.70;67.30;;;;;;5024453;28;20048;-86
2024/01/23 04:45:03;;;;;;;1.00;0.90;;;15.70;67.30;;;;;;5023689;28;20526;-86
2024/01/23 04:47:29;;;;;;;1.25;1.15;;;15.70;67.30;;;;;;5021899;28;20049;-86
2024/01/23 04:49:54;;;;;;;1.10;0.73;;;15.70;67.40;;;;;;5023618;28;20195;-85
2024/01/23 04:52:20;;;;;;;1.80;1.20;;;15.70;67.30;;;;;;5006760;28;20619;-85
2024/01/23 04:54:46;;;;;;;1.50;0.85;;;15.70;67.40;;;;;;5017481;28;20040;-85
2024/01/23 04:57:11;;;;;;;1.20;1.08;;;15.60;67.40;;;;;;5016096;28;20044;-85
2024/01/23 04:59:37;;;;;;;1.30;1.08;;;15.60;67.40;;;;;;5024726;28;20431;-85
2024/01/23 05:02:04;;;;;;;1.38;1.17;;;15.60;67.40;;;;;;5025974;28;20037;-85
2024/01/23 05:04:29;;;;;;;1.40;1.20;;;15.70;67.50;;;;;;5016866;28;20041;-85
2024/01/23 05:06:55;;;;;;;1.45;1.27;;;15.70;67.50;;;;;;5008162;28;20089;-85
2024/01/23 05:09:21;;;;;;;1.58;0.90;;;15.70;67.60;;;;;;5024335;28;20104;-85
2024/01/23 05:11:46;;;;;;;1.40;1.00;;;15.60;67.50;;;;;;5025682;28;20049;-85
2024/01/23 05:14:14;;;;;;;0.80;0.80;;;15.60;67.60;;;;;;5009153;28;20026;-87
2024/01/23 05:16:39;;;;;;;1.73;1.00;;;15.60;67.60;;;;;;5008110;28;20511;-89
2024/01/23 05:19:05;;;;;;;1.58;1.23;;;15.60;67.60;;;;;;5024154;28;20124;-87
2024/01/23 05:21:31;;;;;;;1.83;1.20;;;15.60;67.70;;;;;;5007282;28;20061;-88
2024/01/23 05:23:56;;;;;;;3.10;1.23;;;15.60;67.60;;;;;;5024804;28;20045;-88
2024/01/23 05:26:22;;;;;;;2.90;1.30;;;15.60;67.60;;;;;;5021461;28;20069;-87
2024/01/23 05:28:47;;;;;;;1.45;1.00;;;15.60;67.60;;;;;;5014277;28;20100;-87
2024/01/23 05:31:13;;;;;;;2.25;1.20;;;15.60;67.60;;;;;;4988818;28;20045;-88
2024/01/23 05:33:38;;;;;;;1.20;1.02;;;15.60;67.60;;;;;;5003598;28;20057;-82
2024/01/23 05:36:06;;;;;;;1.95;0.98;;;15.60;67.60;;;;;;5010244;28;20042;-84
2024/01/23 05:38:31;;;;;;;1.27;1.00;;;15.60;67.60;;;;;;4997569;28;20124;-87
2024/01/23 05:40:57;;;;;;;1.10;1.00;;;15.60;67.60;;;;;;5023994;28;20125;-86
2024/01/23 05:43:22;;;;;;;1.30;1.00;;;15.60;67.60;;;;;;5013889;28;20046;-87
2024/01/23 05:45:49;;;;;;;1.98;1.20;;;15.50;67.60;;;;;;4996830;28;20049;-85
2024/01/23 05:48:15;;;;;;;1.60;1.00;;;15.50;67.60;;;;;;5050830;28;20049;-84
2024/01/23 05:50:40;;;;;;;1.80;0.82;;;15.50;67.60;;;;;;5022234;28;20045;-84
2024/01/23 05:53:06;;;;;;;1.35;1.15;;;15.50;68.40;;;;;;5016136;28;20038;-87
2024/01/23 05:55:32;;;;;;;2.25;1.25;;;15.50;67.60;;;;;;5000630;28;20061;-88
2024/01/23 05:57:58;;;;;;;2.17;1.00;;;15.50;68.40;;;;;;5021661;28;20046;-84
2024/01/23 06:00:23;;;;;;;1.77;0.95;;;15.50;67.60;;;;;;5024826;28;20078;-87
2024/01/23 06:02:49;;;;;;;1.58;0.90;;;15.60;68.20;;;;;;5020962;28;20122;-86
2024/01/23 06:05:14;;;;;;;1.67;1.00;;;15.60;67.30;;;;;;5023643;28;20661;-85
2024/01/23 06:07:43;;;;;;;5.57;1.10;;;15.60;67.30;;;;;;5020190;28;20056;-83
2024/01/23 06:10:09;;;;;;;4.40;1.10;;;15.70;67.40;;;;;;5024107;28;20037;-85
2024/01/23 06:12:35;;;;;;;1.90;1.25;;;15.60;68.10;;;;;;5017243;28;20052;-86
2024/01/23 06:15:01;;;;;;;2.33;1.30;;;15.60;67.60;;;;;;4989540;28;20050;-84
2024/01/23 06:17:26;;;;;;;1.10;0.90;;;15.70;67.40;;;;;;5056291;28;20053;-85
2024/01/23 06:19:52;;;;;;;2.80;1.02;;;15.70;68.20;;;;;;5021196;28;20684;-87
2024/01/23 06:22:17;;;;;;;2.42;1.13;;;15.60;67.50;;;;;;4988408;28;20398;-85
2024/01/23 06:25:00;;;;;;;4.20;1.55;;;15.60;67.60;;;;;;5013098;28;20061;-85
2024/01/23 06:27:25;;;;;;;1.95;1.10;;;15.50;67.70;;;;;;4994032;28;20041;-86
2024/01/23 06:29:51;;;;;;;1.67;0.70;;;15.50;67.70;;;;;;4998796;28;20510;-84
2024/01/23 06:32:16;;;;;;;1.95;0.93;;;15.50;67.80;;;;;;5023535;28;20408;-85
2024/01/23 06:34:42;;;;;;;1.92;1.05;;;15.50;67.80;;;;;;4996151;28;20045;-80
2024/01/23 06:37:07;;;;;;;1.58;1.02;;;15.50;68.00;;;;;;5016104;28;20049;-80
2024/01/23 06:39:33;;;;;;;2.05;0.93;;;15.50;67.80;;;;;;5017803;28;20057;-80
2024/01/23 06:41:59;;;;;;;3.38;1.17;;;15.50;67.80;;;;;;4999718;28;20041;-81
2024/01/23 06:44:24;;;;;;;1.50;0.93;;;15.50;67.80;;;;;;5004904;28;20967;-80
2024/01/23 06:46:50;;;;;;;2.22;1.13;;;15.50;67.60;;;;;;4983782;28;20100;-81
2024/01/23 06:49:15;;;;;;;1.38;1.15;;;15.50;67.80;;;;;;4654297;28;10000241;-81
2024/01/23 06:51:41;;;;;;;1.60;0.88;;;15.50;67.90;;;;;;5050920;28;20131;-81
2024/01/23 06:54:07;;;;;;;2.72;1.10;;;15.50;67.80;;;;;;4998067;28;20042;-81
2024/01/23 06:56:33;;;;;;;2.40;0.80;;;15.50;67.80;;;;;;5019386;28;20045;-81
2024/01/23 06:58:59;;;;;;;1.80;1.05;;;15.50;67.80;;;;;;5018813;28;20102;-82
2024/01/23 07:01:26;;;;;;;1.02;0.82;;;15.50;67.80;;;;;;5014610;28;20042;-81
2024/01/23 07:03:52;;;;;;;2.33;0.90;;;15.50;67.80;;;;;;5019476;28;20049;-81
2024/01/23 07:06:17;;;;;;;1.20;1.00;;;15.50;67.80;;;;;;5018208;28;20740;-80
2024/01/23 07:08:43;;;;;;;1.58;1.00;;;15.50;67.90;;;;;;4997830;28;20496;-81
2024/01/23 07:11:09;;;;;;;3.72;1.45;;;15.40;67.80;;;;;;4999614;28;20042;-81
2024/01/23 07:13:34;;;;;;;2.05;1.05;;;15.40;67.80;;;;;;5000927;28;20527;-81
2024/01/23 07:16:00;;;;;;;1.30;0.80;;;15.40;67.80;;;;;;5001979;28;20045;-81
2024/01/23 07:18:25;;;;;;;1.65;0.98;;;15.40;67.90;;;;;;5011871;28;20145;-81
2024/01/23 07:20:51;;;;;;;2.40;1.27;;;15.40;68.00;;;;;;4991326;28;20072;-81
2024/01/23 07:23:17;;;;;;;2.00;1.10;;;15.40;67.90;;;;;;4985073;28;20045;-80
2024/01/23 07:25:42;;;;;;;2.22;0.95;;;15.40;67.90;;;;;;5011325;28;20046;-81
2024/01/23 07:28:08;;;;;;;1.20;1.10;;;15.40;67.90;;;;;;5002545;28;20042;-82
2024/01/23 07:30:33;;;;;;;2.33;1.00;;;15.40;67.90;;;;;;5018739;28;20418;-82
2024/01/23 07:32:59;;;;;;;1.38;1.08;;;15.40;68.00;;;;;;5018030;28;20057;-85
2024/01/23 07:35:24;;;;;;;1.90;1.17;;;15.40;67.90;;;;;;5012562;28;20099;-82
2024/01/23 07:37:50;;;;;;;1.90;1.05;;;15.40;67.90;;;;;;5011673;28;20049;-83
2024/01/23 07:40:16;;;;;;;3.50;1.02;;;15.50;67.70;;;;;;5015216;28;20579;-81
2024/01/23 07:42:41;;;;;;;2.53;1.08;;;15.50;68.00;;;;;;4996110;28;20064;-82
2024/01/23 07:45:07;;;;;;;3.50;1.27;;;15.50;69.60;;;;;;4991737;28;20131;-80
2024/01/23 07:47:32;;;;;;;3.20;1.30;;;15.50;69.80;;;;;;5019491;28;20059;-84
2024/01/23 07:49:58;;;;;;;2.88;1.30;;;15.60;70.00;;;;;;5026123;28;20041;-83
2024/01/23 07:52:26;;;;;;;2.42;2.10;;;15.50;70.20;;;;;;4992497;28;20140;-82
2024/01/23 07:54:53;;;;;;;3.67;2.00;;;15.50;73.70;;;;;;5022468;28;20103;-82
2024/01/23 07:57:18;;;;;;;4.15;2.00;;;15.50;74.00;;;;;;5024603;28;20060;-80
2024/01/23 07:59:44;;;;;;;2.75;1.80;;;15.40;72.50;;;;;;5025100;28;20041;-82
2024/01/23 08:02:09;;;;;;;2.92;1.55;;;15.40;71.70;;;;;;5026004;28;20034;-82
2024/01/23 08:04:35;;;;;;;2.40;1.30;;;15.40;71.40;;;;;;5024862;28;20038;-82
2024/01/23 08:07:00;;;;;;;2.22;1.30;;;15.40;71.20;;;;;;5027404;28;20507;-82
2024/01/23 08:09:26;;;;;;;2.20;1.90;;;15.40;70.90;;;;;;5022768;28;20902;-82
2024/01/23 08:11:52;;;;;;;5.35;1.52;;;15.40;70.90;;;;;;5023726;28;20434;-83
2024/01/23 08:14:18;;;;;;;2.70;1.65;;;15.40;70.90;;;;;;5024499;28;20511;-82
2024/01/23 08:16:44;;;;;;;4.25;1.65;;;15.30;70.90;;;;;;5024051;28;20132;-82
2024/01/23 08:19:10;;;;;;;3.20;1.30;;;15.40;70.70;;;;;;5024578;28;20511;-83
2024/01/23 08:21:35;;;;;;;8.02;1.63;;;15.40;70.50;;;;;;5023619;28;20037;-82
2024/01/23 08:24:01;;;;;;;1.90;1.05;;;15.40;70.50;;;;;;5025524;28;20049;-82
2024/01/23 08:26:26;;;;;;;2.35;1.27;;;15.40;70.30;;;;;;5023869;28;20045;-82
2024/01/23 08:28:52;;;;;;;2.80;1.30;;;15.30;70.10;;;;;;5039150;28;20049;-82
2024/01/23 08:31:18;;;;;;;2.38;1.20;;;15.30;70.10;;;;;;5014725;28;20044;-83
2024/01/23 08:33:43;;;;;;;3.97;1.35;;;15.30;70.20;;;;;;5005282;28;20512;-82
2024/01/23 08:36:09;;;;;;;2.95;1.08;;;15.30;70.10;;;;;;5027015;28;20045;-82
2024/01/23 08:38:34;;;;;;;2.60;1.23;;;15.30;70.10;;;;;;5025433;28;20136;-82
2024/01/23 08:41:00;;;;;;;2.92;1.30;;;15.30;70.00;;;;;;5025034;28;20064;-83
2024/01/23 08:43:26;;;;;;;2.17;1.05;;;15.30;69.90;;;;;;5022773;28;20061;-81
2024/01/23 08:45:51;;;;;;;2.90;1.35;;;15.30;69.90;;;;;;5022467;28;20033;-82
2024/01/23 08:48:21;;;;;;;2.63;1.00;;;15.30;69.90;;;;;;5023119;28;20138;-82
2024/01/23 08:50:46;;;;;;;1.50;0.88;;;15.30;69.80;;;;;;5022541;28;20075;-82
2024/01/23 08:53:12;;;;;;;3.05;1.15;;;15.30;69.70;;;;;;5025791;28;20476;-82
2024/01/23 08:55:37;;;;;;;4.68;1.50;;;15.30;69.70;;;;;;5022834;28;20042;-82
2024/01/23 08:58:03;;;;;;;4.40;1.58;;;15.30;69.80;;;;;;5024190;28;20084;-82
2024/01/23 09:00:29;;;;;;;2.10;1.23;;;15.30;69.70;;;;;;5022342;28;20029;-82
2024/01/23 09:02:54;;;;;;;5.03;1.25;;;15.30;69.70;;;;;;5021584;28;20056;-83
2024/01/23 09:05:20;;;;;;;2.65;1.17;;;15.30;69.60;;;;;;5026246;28;20038;-83
2024/01/23 09:07:45;;;;;;;2.05;1.15;;;15.30;69.60;;;;;;5023729;28;20050;-82
2024/01/23 09:10:11;;;;;;;3.10;1.60;;;15.30;69.60;;;;;;5026041;28;20121;-82
2024/01/23 09:12:36;;;;;;;1.40;1.05;;;15.30;69.50;;;;;;5019997;28;20048;-82
2024/01/23 09:15:05;;;;;;;3.92;1.63;;;15.20;69.30;;;;;;5024116;28;20087;-82
2024/01/23 09:17:31;;;;;;;1.85;1.15;;;15.20;69.40;;;;;;5023107;28;20142;-82
2024/01/23 09:19:57;;;;;;;2.33;1.20;;;15.30;69.40;;;;;;5023430;28;20494;-83
2024/01/23 09:22:22;;;;;;;2.65;1.38;;;15.20;69.40;;;;;;5024866;28;20045;-82
2024/01/23 09:24:48;;;;;;;1.50;1.08;;;15.30;69.30;;;;;;5021308;28;20044;-82
2024/01/23 09:27:13;;;;;;;2.08;1.00;;;15.20;69.30;;;;;;5022530;28;20064;-82
2024/01/23 09:29:41;;;;;;;2.60;1.05;;;15.20;69.30;;;;;;5019777;28;20483;-82
2024/01/23 09:32:07;;;;;;;2.10;1.00;;;15.20;69.30;;;;;;5025772;28;20038;-82
2024/01/23 09:34:32;;;;;;;2.40;0.95;;;15.20;70.10;;;;;;5022247;28;20082;-82
2024/01/23 09:36:58;;;;;;;2.25;1.00;;;15.20;69.30;;;;;;4978970;28;20046;-82
2024/01/23 09:39:23;;;;;;;2.38;0.90;;;15.20;69.30;;;;;;4986553;28;20038;-82
2024/01/23 09:41:54;;;;;;;3.25;0.90;;;15.20;69.40;;;;;;5019945;28;20099;-82
2024/01/23 09:44:19;;;;;;;2.50;1.23;;;15.20;70.10;;;;;;5025620;28;20026;-82
2024/01/23 09:46:45;;;;;;;1.83;1.33;;;15.20;69.20;;;;;;5022613;28;20073;-82
2024/01/23 09:49:11;;;;;;;3.67;1.35;;;15.20;69.20;;;;;;5021737;28;20507;-82
2024/01/23 09:51:41;;;;;;;1.45;0.80;;;15.20;70.00;;;;;;5018402;28;20044;-82
2024/01/23 09:54:08;;;;;;;1.98;0.90;;;15.20;69.20;;;;;;5021998;28;20034;-83
2024/01/23 09:56:35;;;;;;;1.50;0.85;;;15.20;69.20;;;;;;5023801;28;20045;-82
2024/01/23 09:59:01;;;;;;;3.38;0.93;;;15.20;69.10;;;;;;5047882;28;20625;-82
2024/01/23 10:01:26;;;;;;;1.90;0.75;;;15.20;69.20;;;;;;5020466;28;20041;-82
2024/01/23 10:03:56;;;;;;;3.60;1.20;;;15.20;69.10;;;;;;5052418;28;20128;-82
2024/01/23 10:06:21;;;;;;;1.35;0.85;;;15.20;69.00;;;;;;5008777;28;20053;-82
2024/01/23 10:08:47;;;;;;;1.08;0.82;;;15.20;69.00;;;;;;5020123;28;20084;-82
2024/01/23 10:11:12;;;;;;;1.88;0.90;;;15.20;69.20;;;;;;5024662;28;20176;-82
2024/01/23 10:13:38;;;;;;;3.08;0.90;;;15.20;69.20;;;;;;5020019;28;20041;-82
2024/01/23 10:16:04;;;;;;;0.95;0.75;;;15.20;69.10;;;;;;5020210;28;20455;-82
2024/01/23 10:18:30;;;;;;;1.45;1.00;;;15.20;69.00;;;;;;5021043;28;20044;-82
2024/01/23 10:20:56;;;;;;;2.85;1.17;;;15.20;69.00;;;;;;5022172;28;20033;-82
2024/01/23 10:23:22;;;;;;;1.48;0.95;;;15.20;69.10;;;;;;5025670;28;20037;-82
2024/01/23 10:25:48;;;;;;;1.85;0.98;;;15.20;69.10;;;;;;5004354;28;20499;-82
2024/01/23 10:28:15;;;;;;;1.42;0.70;;;15.20;69.00;;;;;;5020494;28;20491;-82
2024/01/23 10:30:40;;;;;;;1.27;0.70;;;15.20;68.80;;;;;;5019149;28;20041;-82
2024/01/23 10:33:06;;;;;;;1.70;0.93;;;15.20;68.90;;;;;;5023103;28;20045;-82
2024/01/23 10:35:35;;;;;;;1.98;0.80;;;15.20;69.00;;;;;;5023802;28;20034;-82
2024/01/23 10:38:05;;;;;;;2.88;1.00;;;15.20;69.00;;;;;;5010029;28;20042;-83
2024/01/23 10:40:31;;;;;;;1.80;0.90;;;15.20;69.00;;;;;;5020369;28;20045;-84
2024/01/23 10:42:56;;;;;;;1.38;0.88;;;15.20;68.90;;;;;;5022214;28;20091;-83
2024/01/23 10:45:22;;;;;;;2.20;0.73;;;15.20;68.60;;;;;;5006203;28;20117;-83
2024/01/23 10:47:48;;;;;;;1.55;0.85;;;15.20;68.90;;;;;;5052228;28;20050;-81
2024/01/23 10:50:14;;;;;;;1.90;1.13;;;15.20;68.80;;;;;;5018271;28;20120;-82
2024/01/23 10:52:40;;;;;;;2.22;1.02;;;15.20;69.00;;;;;;4988379;28;20171;-81
2024/01/23 10:55:06;;;;;;;1.85;1.05;;;15.20;68.80;;;;;;4988070;28;20594;-81
2024/01/23 10:57:38;;;;;;;2.00;1.00;;;15.20;68.90;;;;;;5017965;28;20099;-81
2024/01/23 11:00:04;;;;;;;1.50;0.75;;;15.20;69.00;;;;;;5012930;28;20037;-80
2024/01/23 11:02:30;;;;;;;1.58;0.85;;;15.20;69.00;;;;;;5019852;28;20044;-81
2024/01/23 11:04:56;;;;;;;0.63;0.52;;;15.20;68.90;;;;;;5017609;28;20515;-79
2024/01/23 11:07:34;;;;;;;1.48;1.15;;;15.20;68.80;;;;;;5037268;28;20057;-80
2024/01/23 11:10:23;;;;;;;2.30;1.00;;;15.20;69.70;;;;;;4991536;28;20064;-80
2024/01/23 11:13:07;;;;;;;1.40;1.00;;;15.20;69.00;;;;;;5001803;28;20058;-79
2024/01/23 11:15:33;;;;;;;2.00;0.68;;;15.20;69.00;;;;;;5009266;28;20037;-79
2024/01/23 11:18:21;;;;;;;3.75;1.00;;;15.20;69.00;;;;;;5024879;28;20040;-79
2024/01/23 11:21:10;;;;;;;1.15;0.70;;;15.20;69.40;;;;;;5024531;28;20054;-79
2024/01/23 11:23:36;;;;;;;2.35;0.60;;;15.20;69.10;;;;;;5021717;28;20052;-79
2024/01/23 11:26:14;;;;;;;2.17;0.90;;;15.10;69.10;;;;;;5027232;28;20045;-79
2024/01/23 11:28:41;;;;;;;1.27;0.80;;;15.20;69.10;;;;;;5024503;28;20505;-79
2024/01/23 11:31:20;;;;;;;1.77;1.02;;;15.20;69.20;;;;;;5008863;28;20042;-80
2024/01/23 11:33:49;;;;;;;1.00;0.77;;;15.20;69.10;;;;;;5024179;28;20045;-79
2024/01/23 11:36:22;;;;;;;3.22;1.00;;;15.20;69.00;;;;;;5024922;28;20104;-79
2024/01/23 11:38:48;;;;;;;1.80;1.10;;;15.20;69.00;;;;;;5000210;28;20061;-80
2024/01/23 11:41:23;;;;;;;1.67;0.93;;;15.20;69.10;;;;;;4977182;28;20129;-79
2024/01/23 11:44:01;;;;;;;2.30;1.00;;;15.20;68.90;;;;;;4661635;28;9999964;-80
2024/01/23 11:46:27;;;;;;;2.65;1.13;;;15.20;68.60;;;;;;5020564;28;20067;-80
2024/01/23 11:48:53;;;;;;;1.23;0.77;;;15.30;68.60;;;;;;5021162;28;20041;-80
2024/01/23 11:51:19;;;;;;;1.85;0.73;;;15.20;68.70;;;;;;5023509;28;20049;-80
2024/01/23 11:53:45;;;;;;;1.23;0.80;;;15.30;68.60;;;;;;5018821;28;20068;-79
2024/01/23 11:56:11;;;;;;;1.55;0.80;;;15.30;68.60;;;;;;5003519;28;20075;-80
2024/01/23 11:58:37;;;;;;;3.53;1.27;;;15.30;68.70;;;;;;5020568;28;20478;-79
2024/01/23 12:01:05;;;;;;;2.60;0.80;;;15.30;68.40;;;;;;5019621;28;20069;-80
2024/01/23 12:03:31;;;;;;;1.80;1.02;;;15.30;69.70;;;;;;4983300;28;20188;-80
2024/01/23 12:05:57;;;;;;;1.48;0.80;;;15.30;68.70;;;;;;4656916;28;9999935;-79
2024/01/23 12:08:23;;;;;;;1.48;0.90;;;15.30;68.50;;;;;;5035428;28;20037;-79
2024/01/23 12:10:49;;;;;;;3.42;0.73;;;15.30;68.70;;;;;;5008438;28;20124;-80
2024/01/23 12:13:15;;;;;;;1.17;0.70;;;15.30;68.60;;;;;;5023090;28;20116;-79
2024/01/23 12:15:40;;;;;;;2.33;1.10;;;15.30;68.70;;;;;;5020507;28;20168;-80
2024/01/23 12:18:06;;;;;;;1.90;0.95;;;15.30;68.70;;;;;;5025286;28;20111;-80
2024/01/23 12:20:31;;;;;;;1.60;1.13;;;15.30;68.60;;;;;;5023171;28;20400;-80
2024/01/23 12:22:57;;;;;;;1.33;0.90;;;15.30;68.80;;;;;;5026291;28;20029;-80
2024/01/23 12:25:22;;;;;;;2.10;1.00;;;15.30;68.80;;;;;;4990458;28;20043;-80
2024/01/23 12:27:51;;;;;;;2.38;0.57;;;15.30;68.70;;;;;;4971325;28;20461;-80
2024/01/23 12:30:16;;;;;;;1.15;1.00;;;15.20;68.90;;;;;;5002665;28;20030;-80
2024/01/23 12:32:47;;;;;;;2.95;1.17;;;15.30;68.70;;;;;;4996563;28;20040;-81
2024/01/23 12:35:13;;;;;;;1.55;1.10;;;15.30;68.70;;;;;;5021066;28;20120;-81
2024/01/23 12:37:39;;;;;;;1.42;1.00;;;15.40;69.00;;;;;;5019200;28;20590;-84
2024/01/23 12:40:11;;;;;;;1.98;0.90;;;15.30;68.80;;;;;;5023187;28;20045;-80